createdAt,value
2019-03-19T00:00:07.768Z,2.86
2019-03-19T00:02:34.108Z,2.83
2019-03-19T00:05:00.410Z,2.79
2019-03-19T00:07:36.931Z,2.76
2019-03-19T00:09:54.997Z,2.73
2019-03-19T00:12:21.349Z,2.67
2019-03-19T00:14:47.730Z,2.64
2019-03-19T00:17:14.037Z,2.62
2019-03-19T00:19:40.385Z,2.56
2019-03-19T00:22:06.473Z,2.55
2019-03-19T00:24:32.794Z,2.53
2019-03-19T00:26:59.062Z,2.54
2019-03-19T00:29:25.350Z,2.55
2019-03-19T00:31:51.588Z,2.52
2019-03-19T00:34:17.961Z,2.49
2019-03-19T00:36:44.271Z,2.48
2019-03-19T00:39:10.693Z,2.49
2019-03-19T00:41:36.939Z,2.43
2019-03-19T00:44:03.241Z,2.40
2019-03-19T00:46:29.535Z,2.40
2019-03-19T00:48:55.883Z,2.37
2019-03-19T00:51:22.166Z,2.34
2019-03-19T00:53:48.355Z,2.34
2019-03-19T00:56:14.703Z,2.32
2019-03-19T00:58:40.888Z,2.28
2019-03-19T01:04:03.392Z,2.20
2019-03-19T01:06:29.635Z,2.16
2019-03-19T01:08:56.021Z,2.13
2019-03-19T01:11:22.297Z,2.11
2019-03-19T01:13:48.629Z,2.09
2019-03-19T01:16:14.866Z,2.07
2019-03-19T01:18:41.167Z,2.06
2019-03-19T01:21:07.461Z,2.00
2019-03-19T01:23:33.768Z,1.96
2019-03-19T01:26:00.039Z,1.94
2019-03-19T01:28:26.387Z,1.94
2019-03-19T01:30:52.668Z,1.91
2019-03-19T01:33:18.936Z,1.90
2019-03-19T01:35:45.235Z,1.91
2019-03-19T01:38:11.447Z,1.91
2019-03-19T01:40:39.586Z,1.89
2019-03-19T01:43:08.807Z,1.88
2019-03-19T01:45:35.005Z,1.86
2019-03-19T01:48:01.439Z,1.72
2019-03-19T01:50:27.618Z,1.67
2019-03-19T01:52:53.938Z,1.66
2019-03-19T01:55:20.196Z,1.64
2019-03-19T01:57:49.199Z,1.64
2019-03-19T02:00:18.822Z,1.65
2019-03-19T02:02:45.047Z,1.59
2019-03-19T02:05:11.222Z,1.58
2019-03-19T02:07:37.495Z,1.60
2019-03-19T02:10:09.414Z,1.64
2019-03-19T02:12:35.723Z,1.64
2019-03-19T02:15:02.125Z,1.63
2019-03-19T02:17:28.435Z,1.62
2019-03-19T02:19:54.719Z,1.59
2019-03-19T02:22:21.145Z,1.57
2019-03-19T02:24:47.490Z,1.55
2019-03-19T02:27:13.667Z,1.51
2019-03-19T02:29:40.007Z,1.49
2019-03-19T02:32:06.149Z,1.48
2019-03-19T02:34:32.534Z,1.47
2019-03-19T02:36:58.833Z,1.44
2019-03-19T02:39:25.097Z,1.38
2019-03-19T02:41:51.432Z,1.22
2019-03-19T02:44:17.736Z,1.16
2019-03-19T02:46:44.090Z,1.15
2019-03-19T02:49:13.132Z,1.09
2019-03-19T02:51:39.416Z,1.19
2019-03-19T02:54:05.765Z,1.17
2019-03-19T02:56:33.943Z,1.16
2019-03-19T02:59:00.195Z,1.12
2019-03-19T03:01:26.480Z,1.08
2019-03-19T03:03:56.323Z,1.03
2019-03-19T03:06:22.576Z,0.98
2019-03-19T03:08:48.844Z,0.91
2019-03-19T03:11:15.102Z,0.90
2019-03-19T03:13:41.420Z,0.85
2019-03-19T03:16:07.709Z,0.86
2019-03-19T03:18:33.891Z,0.87
2019-03-19T03:21:05.429Z,0.86
2019-03-19T03:23:31.713Z,0.87
2019-03-19T03:25:57.885Z,0.87
2019-03-19T03:28:24.013Z,0.82
2019-03-19T03:30:50.303Z,0.80
2019-03-19T03:33:16.597Z,0.76
2019-03-19T03:35:42.916Z,0.72
2019-03-19T03:38:10.980Z,0.68
2019-03-19T03:40:37.255Z,0.62
2019-03-19T03:43:03.636Z,0.56
2019-03-19T03:45:29.893Z,0.57
2019-03-19T03:47:56.082Z,0.54
2019-03-19T03:50:22.359Z,0.53
2019-03-19T03:52:48.887Z,0.46
2019-03-19T03:55:17.610Z,0.44
2019-03-19T03:57:43.943Z,0.41
2019-03-19T04:00:15.469Z,0.38
2019-03-19T04:02:44.658Z,0.35
2019-03-19T04:05:09.907Z,0.23
2019-03-19T04:07:36.171Z,0.13
2019-03-19T04:10:05.375Z,0.00
2019-03-19T04:15:35.046Z,0.03
2019-03-19T04:18:01.260Z,0.03
2019-03-19T04:20:27.435Z,0.05
2019-03-19T04:22:53.871Z,0.05
2019-03-19T04:25:20.063Z,0.04
2019-03-19T04:27:46.299Z,0.03
2019-03-19T04:30:16.457Z,-0.03
2019-03-19T04:32:42.798Z,-0.09
2019-03-19T04:35:08.994Z,-0.12
2019-03-19T04:37:35.319Z,-0.11
2019-03-19T04:40:01.580Z,-0.13
2019-03-19T04:42:27.896Z,-0.16
2019-03-19T04:44:54.206Z,-0.22
2019-03-19T04:47:20.509Z,-0.21
2019-03-19T04:49:46.881Z,-0.22
2019-03-19T04:52:13.230Z,-0.28
2019-03-19T04:54:39.821Z,-0.30
2019-03-19T04:57:06.213Z,-0.32
2019-03-19T04:59:32.596Z,-0.45
2019-03-19T05:01:58.878Z,-0.44
2019-03-19T05:04:25.828Z,-0.42
2019-03-19T05:06:51.871Z,-0.38
2019-03-19T05:09:18.119Z,-0.34
2019-03-19T05:11:44.402Z,-0.32
2019-03-19T05:14:12.572Z,-0.31
2019-03-19T05:16:38.774Z,-0.32
2019-03-19T05:19:04.924Z,-0.35
2019-03-19T05:21:31.215Z,-0.35
2019-03-19T05:23:57.528Z,-0.33
2019-03-19T05:26:23.671Z,-0.31
2019-03-19T05:28:50.024Z,-0.26
2019-03-19T05:31:16.244Z,-0.25
2019-03-19T05:33:42.542Z,-0.21
2019-03-19T05:36:08.815Z,-0.22
2019-03-19T05:38:35.114Z,-0.24
2019-03-19T05:41:01.517Z,-0.34
2019-03-19T05:43:27.824Z,-0.35
2019-03-19T05:45:54.001Z,-0.30
2019-03-19T05:48:20.287Z,-0.28
2019-03-19T05:50:46.630Z,-0.23
2019-03-19T05:53:14.446Z,-0.16
2019-03-19T05:55:49.209Z,-0.10
2019-03-19T05:58:15.529Z,-0.09
2019-03-19T06:00:41.676Z,-0.18
2019-03-19T06:03:07.952Z,-0.13
2019-03-19T06:05:34.211Z,-0.11
2019-03-19T06:08:00.374Z,-0.04
2019-03-19T06:10:26.622Z,0.05
2019-03-19T06:12:52.881Z,0.12
2019-03-19T06:15:19.138Z,0.17
2019-03-19T06:17:45.399Z,0.24
2019-03-19T06:20:13.078Z,0.30
2019-03-19T06:22:39.448Z,0.35
2019-03-19T06:25:07.465Z,0.36
2019-03-19T06:27:33.830Z,0.40
2019-03-19T06:30:00.334Z,0.45
2019-03-19T06:32:26.609Z,0.44
2019-03-19T06:34:52.927Z,0.46
2019-03-19T06:37:19.262Z,0.39
2019-03-19T06:39:45.430Z,0.40
2019-03-19T06:42:13.432Z,0.42
2019-03-19T06:44:39.681Z,0.45
2019-03-19T06:47:05.966Z,0.47
2019-03-19T06:49:32.092Z,0.49
2019-03-19T06:51:59.285Z,0.52
2019-03-19T06:54:25.774Z,0.58
2019-03-19T06:56:51.944Z,0.68
2019-03-19T06:59:18.241Z,0.71
2019-03-19T07:01:44.467Z,0.80
2019-03-19T07:04:13.290Z,0.86
2019-03-19T07:06:39.523Z,0.92
2019-03-19T07:09:06.895Z,0.97
2019-03-19T07:11:33.168Z,1.02
2019-03-19T07:13:59.403Z,1.02
2019-03-19T07:16:25.717Z,1.00
2019-03-19T07:18:51.990Z,1.07
2019-03-19T07:21:19.391Z,1.10
2019-03-19T07:23:45.694Z,1.08
2019-03-19T07:26:12.060Z,1.11
2019-03-19T07:28:38.500Z,1.19
2019-03-19T07:31:05.043Z,1.30
2019-03-19T07:33:31.979Z,1.33
2019-03-19T07:35:58.344Z,1.34
2019-03-19T07:38:24.710Z,1.42
2019-03-19T07:40:51.048Z,1.47
2019-03-19T07:43:17.436Z,1.45
2019-03-19T07:45:43.752Z,1.51
2019-03-19T07:48:12.738Z,1.61
2019-03-19T07:50:38.943Z,1.69
2019-03-19T07:53:05.195Z,1.78
2019-03-19T07:55:31.401Z,1.88
2019-03-19T07:57:57.564Z,1.95
2019-03-19T08:00:23.715Z,2.03
2019-03-19T08:02:53.412Z,2.12
2019-03-19T08:05:19.562Z,2.19
2019-03-19T08:07:45.886Z,2.29
2019-03-19T08:10:18.786Z,2.38
2019-03-19T08:12:45.528Z,2.46
2019-03-19T08:15:14.183Z,2.56
2019-03-19T08:17:42.813Z,2.64
2019-03-19T08:20:13.008Z,2.75
2019-03-19T08:22:40.160Z,2.83
2019-03-19T08:25:14.962Z,2.94
2019-03-19T08:27:43.331Z,3.02
2019-03-19T08:30:25.083Z,3.10
2019-03-19T08:32:51.535Z,3.18
2019-03-19T08:35:17.503Z,3.33
2019-03-19T08:37:43.644Z,3.52
2019-03-19T08:40:12.039Z,3.66
2019-03-19T08:42:38.418Z,3.73
2019-03-19T08:45:35.372Z,3.81
2019-03-19T08:48:37.517Z,3.89
2019-03-19T08:51:31.819Z,3.97
2019-03-19T08:53:57.433Z,4.06
2019-03-19T08:56:32.629Z,4.08
2019-03-19T08:59:17.139Z,4.14
2019-03-19T09:03:11.488Z,4.18
2019-03-19T09:05:52.868Z,4.21
2019-03-19T09:08:10.093Z,4.22
2019-03-19T09:10:46.643Z,4.25
2019-03-19T09:13:13.233Z,4.29
2019-03-19T09:15:42.762Z,4.33
2019-03-19T09:18:10.251Z,4.38
2019-03-19T09:20:44.602Z,4.39
2019-03-19T09:23:33.453Z,4.40
2019-03-19T09:26:10.533Z,4.43
2019-03-19T09:28:43.053Z,4.52
2019-03-19T09:31:15.608Z,4.55
2019-03-19T09:33:54.710Z,4.62
2019-03-19T09:39:14.336Z,4.77
2019-03-19T09:41:45.896Z,4.75
2019-03-19T09:44:15.849Z,4.85
2019-03-19T09:47:03.239Z,4.90
2019-03-19T09:49:26.785Z,4.91
2019-03-19T09:51:52.959Z,4.99
2019-03-19T09:54:19.142Z,5.07
2019-03-19T09:56:45.447Z,5.14
2019-03-19T09:59:11.498Z,5.09
2019-03-19T10:01:37.778Z,5.16
2019-03-19T10:04:04.052Z,5.25
2019-03-19T10:06:30.310Z,5.34
2019-03-19T10:08:58.413Z,5.40
2019-03-19T10:11:24.806Z,5.46
2019-03-19T10:13:51.089Z,5.51
2019-03-19T10:16:17.443Z,5.56
2019-03-19T10:18:43.978Z,5.57
2019-03-19T10:21:10.279Z,5.54
2019-03-19T10:23:36.712Z,5.49
2019-03-19T10:26:04.581Z,5.43
2019-03-19T10:28:30.863Z,5.46
2019-03-19T10:30:57.206Z,5.44
2019-03-19T10:33:23.499Z,5.40
2019-03-19T10:35:51.726Z,5.32
2019-03-19T10:38:18.034Z,5.34
2019-03-19T10:40:44.360Z,5.31
2019-03-19T10:43:10.684Z,5.33
2019-03-19T10:45:41.881Z,5.38
2019-03-19T10:48:08.105Z,5.44
2019-03-19T10:50:34.370Z,5.53
2019-03-19T10:53:00.686Z,5.59
2019-03-19T10:55:27.002Z,5.57
2019-03-19T10:57:53.367Z,5.55
2019-03-19T11:00:23.380Z,5.60
2019-03-19T11:02:49.691Z,5.54
2019-03-19T11:05:16.351Z,5.54
2019-03-19T11:07:42.867Z,5.60
2019-03-19T11:10:10.716Z,5.65
2019-03-19T11:12:36.986Z,5.67
2019-03-19T11:15:06.663Z,5.71
2019-03-19T11:17:32.781Z,5.74
2019-03-19T11:19:59.029Z,5.73
2019-03-19T11:22:25.288Z,5.79
2019-03-19T11:24:51.526Z,5.84
2019-03-19T11:27:17.672Z,5.91
2019-03-19T11:29:43.890Z,5.96
2019-03-19T11:32:10.220Z,6.01
2019-03-19T11:34:36.583Z,6.08
2019-03-19T11:37:02.866Z,6.09
2019-03-19T11:39:32.126Z,6.13
2019-03-19T11:41:58.460Z,6.12
2019-03-19T11:44:27.413Z,6.15
2019-03-19T11:46:53.824Z,6.17
2019-03-19T11:49:20.143Z,6.08
2019-03-19T11:51:46.441Z,6.00
2019-03-19T11:54:12.749Z,6.00
2019-03-19T11:56:38.923Z,6.02
2019-03-19T11:59:10.185Z,5.97
2019-03-19T12:01:41.305Z,6.01
2019-03-19T12:04:42.718Z,6.02
2019-03-19T12:07:15.358Z,6.03
2019-03-19T12:10:14.254Z,6.02
2019-03-19T12:12:40.555Z,6.00
2019-03-19T12:15:11.390Z,5.97
2019-03-19T12:17:37.852Z,6.01
2019-03-19T12:20:07.011Z,6.00
2019-03-19T12:22:33.219Z,6.05
2019-03-19T12:25:38.864Z,6.09
2019-03-19T12:28:05.865Z,6.13
2019-03-19T12:33:40.304Z,6.05
2019-03-19T12:35:59.949Z,6.06
2019-03-19T12:38:33.248Z,6.06
2019-03-19T12:40:57.206Z,6.11
2019-03-19T12:43:23.402Z,6.16
2019-03-19T12:45:49.713Z,6.14
2019-03-19T12:48:16.000Z,6.21
2019-03-19T12:50:42.265Z,6.17
2019-03-19T12:53:08.550Z,6.19
2019-03-19T12:55:34.958Z,6.23
2019-03-19T12:58:01.638Z,6.27
2019-03-19T13:00:34.080Z,6.30
2019-03-19T13:02:56.491Z,6.22
2019-03-19T13:05:22.920Z,6.17
2019-03-19T13:07:49.492Z,6.12
2019-03-19T13:10:20.651Z,6.06
2019-03-19T13:12:47.057Z,6.12
2019-03-19T13:15:14.912Z,6.11
2019-03-19T13:17:42.265Z,6.09
2019-03-19T13:20:15.295Z,6.09
2019-03-19T13:22:41.533Z,6.11
2019-03-19T13:25:23.796Z,6.07
2019-03-19T13:27:50.000Z,6.08
2019-03-19T13:30:20.282Z,5.99
2019-03-19T13:32:46.301Z,5.91
2019-03-19T13:35:12.632Z,5.92
2019-03-19T13:37:40.771Z,5.98
2019-03-19T13:40:10.257Z,6.06
2019-03-19T13:42:36.407Z,6.11
2019-03-19T13:45:05.476Z,6.07
2019-03-19T13:47:31.521Z,6.01
2019-03-19T13:49:57.804Z,5.96
2019-03-19T13:52:24.079Z,5.97
2019-03-19T13:54:50.150Z,5.98
2019-03-19T13:57:16.452Z,6.00
2019-03-19T13:59:42.496Z,6.05
2019-03-19T14:02:08.820Z,6.03
2019-03-19T14:04:34.981Z,6.01
2019-03-19T14:07:01.219Z,6.03
2019-03-19T14:09:27.376Z,5.89
2019-03-19T14:11:53.407Z,6.00
2019-03-19T14:14:19.610Z,5.95
2019-03-19T14:16:45.951Z,5.97
2019-03-19T14:19:12.101Z,5.95
2019-03-19T14:21:38.084Z,5.97
2019-03-19T14:24:06.404Z,5.97
2019-03-19T14:26:34.508Z,5.89
2019-03-19T14:29:03.832Z,5.99
2019-03-19T14:31:29.916Z,6.04
2019-03-19T14:33:56.233Z,6.08
2019-03-19T14:36:22.268Z,6.07
2019-03-19T14:38:48.585Z,6.07
2019-03-19T14:41:14.726Z,5.97
2019-03-19T14:43:40.772Z,5.88
2019-03-19T14:46:06.918Z,5.95
2019-03-19T14:48:32.803Z,6.02
2019-03-19T14:51:02.267Z,6.10
2019-03-19T14:53:28.410Z,6.02
2019-03-19T14:55:54.772Z,6.09
2019-03-19T14:58:21.161Z,6.05
2019-03-19T15:00:47.474Z,5.99
2019-03-19T15:03:15.771Z,6.02
2019-03-19T15:05:42.078Z,5.97
2019-03-19T15:08:08.155Z,5.96
2019-03-19T15:10:34.299Z,5.89
2019-03-19T15:13:00.233Z,5.81
2019-03-19T15:15:26.272Z,5.84
2019-03-19T15:17:52.213Z,5.89
2019-03-19T15:20:22.671Z,5.98
2019-03-19T15:22:48.747Z,5.88
2019-03-19T15:25:14.695Z,5.88
2019-03-19T15:27:40.601Z,5.84
2019-03-19T15:30:09.856Z,5.72
2019-03-19T15:32:35.804Z,5.68
2019-03-19T15:35:01.935Z,5.70
2019-03-19T15:37:27.925Z,5.78
2019-03-19T15:39:53.853Z,5.82
2019-03-19T15:42:19.877Z,5.83
2019-03-19T15:44:45.800Z,5.83
2019-03-19T15:47:11.707Z,5.79
2019-03-19T15:49:38.584Z,5.77
2019-03-19T15:52:04.714Z,5.74
2019-03-19T15:54:30.642Z,5.73
2019-03-19T15:56:56.572Z,5.69
2019-03-19T15:59:22.482Z,5.61
2019-03-19T16:01:48.428Z,5.62
2019-03-19T16:04:14.455Z,5.65
2019-03-19T16:06:40.395Z,5.63
2019-03-19T16:09:07.020Z,5.56
2019-03-19T16:11:34.170Z,5.55
2019-03-19T16:14:02.114Z,5.55
2019-03-19T16:16:28.112Z,5.49
2019-03-19T16:18:54.138Z,5.52
2019-03-19T16:21:20.084Z,5.57
2019-03-19T16:23:46.020Z,5.58
2019-03-19T16:26:11.980Z,5.62
2019-03-19T16:28:37.976Z,5.55
2019-03-19T16:31:03.970Z,5.50
2019-03-19T16:33:29.926Z,5.51
2019-03-19T16:35:55.842Z,5.52
2019-03-19T16:38:21.835Z,5.50
2019-03-19T16:40:47.746Z,5.50
2019-03-19T16:43:13.666Z,5.56
2019-03-19T16:45:39.592Z,5.60
2019-03-19T16:48:05.605Z,5.59
2019-03-19T16:50:31.618Z,5.51
2019-03-19T16:52:58.023Z,5.45
2019-03-19T16:55:24.061Z,5.43
2019-03-19T16:57:49.996Z,5.32
2019-03-19T17:00:21.674Z,5.22
2019-03-19T17:02:47.686Z,5.26
2019-03-19T17:05:15.567Z,5.28
2019-03-19T17:07:43.704Z,5.33
2019-03-19T17:10:15.353Z,5.36
2019-03-19T17:12:42.084Z,5.37
2019-03-19T17:15:10.735Z,5.36
2019-03-19T17:17:36.776Z,5.36
2019-03-19T17:20:05.816Z,5.36
2019-03-19T17:22:32.073Z,5.29
2019-03-19T17:24:59.920Z,5.26
2019-03-19T17:27:25.870Z,5.19
2019-03-19T17:29:52.216Z,5.05
2019-03-19T17:32:18.845Z,4.82
2019-03-19T17:34:45.098Z,4.68
2019-03-19T17:37:11.911Z,4.64
2019-03-19T17:39:38.217Z,4.60
2019-03-19T17:42:06.283Z,4.61
2019-03-19T17:44:32.571Z,4.56
2019-03-19T17:46:58.948Z,4.57
2019-03-19T17:49:25.329Z,4.54
2019-03-19T17:51:51.747Z,4.54
2019-03-19T17:54:20.669Z,4.51
2019-03-19T17:56:50.663Z,4.35
2019-03-19T17:59:19.665Z,4.27
2019-03-19T18:01:46.011Z,4.23
2019-03-19T18:04:12.406Z,4.19
2019-03-19T18:06:38.675Z,4.16
2019-03-19T18:09:05.956Z,4.13
2019-03-19T18:11:35.915Z,4.10
2019-03-19T18:14:01.956Z,4.02
2019-03-19T18:16:27.892Z,3.96
2019-03-19T18:18:53.828Z,3.86
2019-03-19T18:21:19.736Z,3.82
2019-03-19T18:23:45.658Z,3.83
2019-03-19T18:26:11.584Z,3.83
2019-03-19T18:28:37.514Z,3.76
2019-03-19T18:31:03.433Z,3.73
2019-03-19T18:33:29.441Z,3.67
2019-03-19T18:35:56.594Z,3.67
2019-03-19T18:38:22.908Z,3.66
2019-03-19T18:40:48.850Z,3.64
2019-03-19T18:43:14.769Z,3.63
2019-03-19T18:45:40.680Z,3.67
2019-03-19T18:48:06.615Z,3.64
2019-03-19T18:50:32.545Z,3.64
2019-03-19T18:52:58.481Z,3.59
2019-03-19T18:55:24.402Z,3.60
2019-03-19T18:57:50.341Z,3.60
2019-03-19T19:00:21.896Z,3.58
2019-03-19T19:02:50.312Z,3.55
2019-03-19T19:05:19.954Z,3.53
2019-03-19T19:07:46.111Z,3.48
2019-03-19T19:10:13.173Z,3.44
2019-03-19T19:12:39.151Z,3.44
2019-03-19T19:15:10.917Z,3.45
2019-03-19T19:17:36.861Z,3.45
2019-03-19T19:20:04.910Z,3.39
2019-03-19T19:22:30.861Z,3.37
2019-03-19T19:24:56.867Z,3.38
2019-03-19T19:27:22.841Z,3.41
2019-03-19T19:29:48.870Z,3.40
2019-03-19T19:32:14.797Z,3.34
2019-03-19T19:35:18.048Z,3.29
2019-03-19T19:37:43.985Z,3.27
2019-03-19T19:40:14.989Z,3.18
2019-03-19T19:42:40.976Z,3.13
2019-03-19T19:45:09.026Z,3.08
2019-03-19T19:47:35.005Z,3.01
2019-03-19T19:50:01.033Z,2.94
2019-03-19T19:52:27.013Z,2.93
2019-03-19T19:54:52.932Z,2.90
2019-03-19T19:57:18.855Z,2.86
2019-03-19T19:59:44.915Z,2.82
2019-03-19T20:02:10.919Z,2.81
2019-03-19T20:04:37.044Z,2.80
2019-03-19T20:07:03.076Z,2.79
2019-03-19T20:09:29.004Z,2.76
2019-03-19T20:11:54.921Z,2.75
2019-03-19T20:14:21.108Z,2.72
2019-03-19T20:16:47.113Z,2.66
2019-03-19T20:19:13.056Z,2.64
2019-03-19T20:21:38.988Z,2.61
2019-03-19T20:24:04.922Z,2.59
2019-03-19T20:26:30.867Z,2.60
2019-03-19T20:28:56.781Z,2.56
2019-03-19T20:31:22.716Z,2.52
2019-03-19T20:33:48.637Z,2.49
2019-03-19T20:36:14.559Z,2.48
2019-03-19T20:38:40.504Z,2.48
2019-03-19T20:41:06.438Z,2.48
2019-03-19T20:43:32.385Z,2.45
2019-03-19T20:45:58.359Z,2.43
2019-03-19T20:48:24.278Z,2.42
2019-03-19T20:50:50.216Z,2.40
2019-03-19T20:53:16.132Z,2.42
2019-03-19T20:55:42.072Z,2.44
2019-03-19T20:58:07.986Z,2.39
2019-03-19T21:00:33.931Z,2.38
2019-03-19T21:03:01.575Z,2.36
2019-03-19T21:05:27.543Z,2.33
2019-03-19T21:07:53.580Z,2.33
2019-03-19T21:10:20.751Z,2.29
2019-03-19T21:12:47.126Z,2.29
2019-03-19T21:15:15.053Z,2.27
2019-03-19T21:17:40.999Z,2.25
2019-03-19T21:20:14.462Z,2.25
2019-03-19T21:22:40.501Z,2.18
2019-03-19T21:25:08.465Z,2.10
2019-03-19T21:27:34.401Z,2.07
2019-03-19T21:30:00.603Z,2.04
2019-03-19T21:32:26.792Z,2.00
2019-03-19T21:34:52.741Z,1.95
2019-03-19T21:37:18.681Z,1.92
2019-03-19T21:39:44.714Z,1.82
2019-03-19T21:42:10.643Z,1.82
2019-03-19T21:44:36.554Z,1.77
2019-03-19T21:47:02.492Z,1.73
2019-03-19T21:49:28.407Z,1.68
2019-03-19T21:51:54.327Z,1.66
2019-03-19T21:54:20.246Z,1.64
2019-03-19T21:56:46.305Z,1.59
2019-03-19T21:59:12.243Z,1.55
2019-03-19T22:01:38.168Z,1.52
2019-03-19T22:04:04.081Z,1.49
2019-03-19T22:06:29.997Z,1.45
2019-03-19T22:08:55.915Z,1.41
2019-03-19T22:11:21.834Z,1.35
2019-03-19T22:13:47.761Z,1.28
2019-03-19T22:16:16.239Z,1.23
2019-03-19T22:18:42.161Z,1.19
2019-03-19T22:21:08.091Z,1.15
2019-03-19T22:23:34.008Z,1.12
2019-03-19T22:25:59.922Z,1.07
2019-03-19T22:28:25.854Z,1.03
2019-03-19T22:30:51.790Z,1.00
2019-03-19T22:33:17.714Z,0.98
2019-03-19T22:35:43.648Z,0.95
2019-03-19T22:38:15.355Z,0.90
2019-03-19T22:40:37.398Z,0.85
2019-03-19T22:43:03.321Z,0.80
2019-03-19T22:45:30.712Z,0.76
2019-03-19T22:48:00.252Z,0.75
2019-03-19T22:50:26.175Z,0.74
2019-03-19T22:52:52.105Z,0.72
2019-03-19T22:55:28.641Z,0.68
2019-03-19T22:57:45.962Z,0.62
2019-03-19T23:00:19.323Z,0.57
2019-03-19T23:02:45.256Z,0.53
2019-03-19T23:05:12.709Z,0.50
2019-03-19T23:07:38.646Z,0.47
2019-03-19T23:10:04.637Z,0.45
2019-03-19T23:12:30.561Z,0.40
2019-03-19T23:14:58.894Z,0.35
2019-03-19T23:17:24.822Z,0.32
2019-03-19T23:19:57.456Z,0.27
2019-03-19T23:22:23.486Z,0.23
2019-03-19T23:24:49.427Z,0.18
2019-03-19T23:27:15.352Z,0.14
2019-03-19T23:29:41.285Z,0.12
2019-03-19T23:32:07.313Z,0.12
2019-03-19T23:34:38.480Z,0.07
2019-03-19T23:37:01.097Z,0.06
2019-03-19T23:39:27.027Z,0.02
2019-03-19T23:41:52.955Z,-0.04
2019-03-19T23:44:18.926Z,-0.03
2019-03-19T23:46:44.837Z,-0.05
2019-03-19T23:49:14.807Z,-0.08
2019-03-19T23:51:40.733Z,-0.13
2019-03-19T23:54:06.666Z,-0.18
2019-03-19T23:56:32.679Z,-0.23
2019-03-19T23:58:58.659Z,-0.26
